Time;durP1;ratioP1;P1;durP2;ratioP2;P2;SDS_P1;SDS_P2;PMS_P1;PMS_P2;Temp;Humidity;BMP_temperature;BMP_pressure;BME280_temperature;BME280_humidity;BME280_pressure;Samples;Min_cycle;Max_cycle;Signal;HPM_P1;HPM_P2
2022/11/17 00:00:01;;;;;;;8.35;7.68;;;9.20;99.90;;;;;;5051950;28;20218;-86
2022/11/17 00:02:29;;;;;;;10.35;7.55;;;9.20;99.90;;;;;;5052161;28;20217;-85
2022/11/17 00:04:56;;;;;;;7.32;6.65;;;9.10;99.90;;;;;;5055098;28;20198;-83
2022/11/17 00:07:23;;;;;;;14.27;9.20;;;9.20;99.90;;;;;;5067758;28;20309;-85
2022/11/17 00:09:50;;;;;;;7.03;6.53;;;9.20;99.90;;;;;;5068321;28;20574;-86
2022/11/17 00:15:01;;;;;;;7.18;6.68;;;9.20;99.90;;;;;;5034805;28;20401;-85
2022/11/17 00:17:29;;;;;;;6.85;6.30;;;9.20;99.90;;;;;;5035386;28;20229;-87
2022/11/17 00:22:40;;;;;;;7.70;7.10;;;9.10;99.90;;;;;;5049167;28;20205;-86
2022/11/17 00:25:07;;;;;;;10.13;7.10;;;9.10;99.90;;;;;;5053943;28;20571;-85
2022/11/17 00:27:34;;;;;;;7.95;7.35;;;9.10;99.90;;;;;;5048977;28;20234;-85
2022/11/17 00:30:01;;;;;;;7.20;6.63;;;9.10;99.90;;;;;;5033958;28;20219;-85
2022/11/17 00:35:13;;;;;;;7.28;6.68;;;9.00;99.90;;;;;;5052196;28;20225;-84
2022/11/17 00:38:14;;;;;;;8.50;7.78;;;9.00;99.90;;;;;;5058856;28;20227;-87
2022/11/17 00:40:28;;;;;;;8.00;7.30;;;9.00;99.90;;;;;;5040874;28;20203;-87
2022/11/17 00:42:55;;;;;;;8.05;6.90;;;9.10;99.90;;;;;;5039618;28;20211;-86
2022/11/17 00:45:22;;;;;;;7.35;6.65;;;9.10;99.90;;;;;;5053940;28;20213;-87
2022/11/17 00:47:50;;;;;;;8.10;7.30;;;9.10;99.90;;;;;;5056512;28;20332;-86
2022/11/17 00:50:17;;;;;;;10.50;8.13;;;9.10;99.90;;;;;;5041305;28;20211;-87
2022/11/17 00:52:44;;;;;;;7.85;7.00;;;9.10;99.90;;;;;;5038070;28;20243;-87
2022/11/17 00:55:10;;;;;;;8.20;7.40;;;9.10;99.90;;;;;;5052316;28;20226;-86
2022/11/17 00:57:37;;;;;;;9.40;8.43;;;9.10;99.90;;;;;;5057607;28;20230;-85
2022/11/17 01:00:05;;;;;;;7.30;6.63;;;9.10;99.90;;;;;;5041038;28;20207;-85
2022/11/17 01:02:32;;;;;;;8.38;7.65;;;9.10;99.90;;;;;;5041592;28;20684;-85
2022/11/17 01:05:00;;;;;;;8.02;7.25;;;9.10;99.90;;;;;;5058588;28;20198;-87
2022/11/17 01:07:26;;;;;;;8.48;7.68;;;9.10;99.90;;;;;;5061268;28;20241;-85
2022/11/17 01:09:53;;;;;;;9.68;8.30;;;9.10;99.90;;;;;;5044391;28;20207;-86
2022/11/17 01:12:20;;;;;;;8.25;7.45;;;9.10;99.90;;;;;;5037359;28;20211;-84
2022/11/17 01:14:47;;;;;;;7.78;6.97;;;9.10;99.90;;;;;;5053246;28;20592;-85
2022/11/17 01:17:13;;;;;;;8.07;7.38;;;9.10;99.90;;;;;;5057309;28;20227;-85
2022/11/17 01:19:40;;;;;;;9.48;7.65;;;9.10;99.90;;;;;;5041385;28;20206;-84
2022/11/17 01:22:08;;;;;;;7.15;6.55;;;9.10;99.90;;;;;;5035678;28;20680;-85
2022/11/17 01:24:35;;;;;;;10.60;8.32;;;9.10;99.90;;;;;;5036785;28;20200;-84
2022/11/17 01:27:02;;;;;;;8.32;7.63;;;9.10;99.90;;;;;;5035120;28;20242;-85
2022/11/17 01:29:29;;;;;;;8.25;7.57;;;9.10;99.90;;;;;;5045583;28;20203;-85
2022/11/17 01:31:55;;;;;;;7.40;6.70;;;9.00;99.90;;;;;;5054813;28;20202;-85
2022/11/17 01:34:22;;;;;;;8.18;7.38;;;9.00;99.90;;;;;;5054158;28;20234;-86
2022/11/17 01:39:35;;;;;;;9.15;8.43;;;8.90;99.90;;;;;;5039874;28;20580;-85
2022/11/17 01:42:04;;;;;;;12.18;8.15;;;8.90;99.90;;;;;;5034917;28;20207;-85
2022/11/17 01:44:57;;;;;;;9.55;7.80;;;8.90;99.90;;;;;;5048636;28;20253;-85
2022/11/17 01:47:29;;;;;;;8.52;7.80;;;8.90;99.90;;;;;;5047366;28;20269;-85
2022/11/17 01:50:00;;;;;;;7.75;7.15;;;8.90;99.90;;;;;;5041347;28;20214;-85
2022/11/17 01:52:29;;;;;;;9.20;8.30;;;8.90;99.90;;;;;;5054529;28;20188;-85
2022/11/17 01:55:00;;;;;;;9.05;8.35;;;8.90;99.90;;;;;;5054292;28;20237;-86
2022/11/17 01:57:30;;;;;;;10.10;9.23;;;8.80;99.90;;;;;;5053549;28;20240;-86
2022/11/17 02:00:02;;;;;;;8.75;8.02;;;8.90;99.90;;;;;;5054247;28;20206;-84
2022/11/17 02:02:30;;;;;;;9.48;8.65;;;8.80;99.90;;;;;;5054031;28;20724;-84
2022/11/17 02:05:06;;;;;;;9.30;8.18;;;8.80;99.90;;;;;;5056824;28;20240;-85
2022/11/17 02:07:36;;;;;;;9.68;8.68;;;8.80;99.90;;;;;;5055001;28;20747;-84
2022/11/17 02:10:06;;;;;;;8.10;7.60;;;8.80;99.90;;;;;;5055123;28;20250;-86
2022/11/17 02:12:35;;;;;;;9.02;8.23;;;8.80;99.90;;;;;;5050271;28;20199;-86
2022/11/17 02:15:04;;;;;;;9.60;8.75;;;8.80;99.90;;;;;;5034574;28;20228;-86
2022/11/17 02:17:35;;;;;;;8.38;7.57;;;8.70;99.90;;;;;;5035993;28;20220;-86
2022/11/17 02:20:08;;;;;;;7.80;7.00;;;8.70;99.90;;;;;;5034728;28;20838;-85
2022/11/17 02:23:09;;;;;;;9.35;8.63;;;8.70;99.90;;;;;;5036309;28;20207;-86
2022/11/17 02:26:17;;;;;;;7.65;6.85;;;8.60;99.90;;;;;;5034956;28;20205;-85
2022/11/17 02:28:49;;;;;;;8.35;7.65;;;8.60;99.90;;;;;;5051187;28;20290;-87
2022/11/17 02:31:22;;;;;;;7.70;7.15;;;8.50;99.90;;;;;;5054734;28;20671;-86
2022/11/17 02:33:54;;;;;;;8.27;7.40;;;8.50;99.90;;;;;;5036969;28;20203;-86
2022/11/17 02:36:32;;;;;;;7.97;7.38;;;8.40;99.90;;;;;;5034968;28;20227;-86
2022/11/17 02:39:05;;;;;;;9.25;7.88;;;8.40;99.90;;;;;;5051976;28;20212;-86
2022/11/17 02:41:38;;;;;;;10.00;8.05;;;8.30;99.90;;;;;;5054338;28;20213;-86
2022/11/17 02:44:10;;;;;;;10.88;7.63;;;8.30;99.90;;;;;;5053425;28;20229;-85
2022/11/17 02:46:45;;;;;;;9.27;8.38;;;8.30;99.90;;;;;;5054138;28;20250;-85
2022/11/17 02:49:17;;;;;;;8.95;8.07;;;8.20;99.90;;;;;;5036056;28;20679;-86
2022/11/17 02:51:44;;;;;;;8.45;7.82;;;8.20;99.90;;;;;;5034401;28;20207;-85
2022/11/17 02:54:12;;;;;;;8.25;7.45;;;8.00;99.90;;;;;;5052611;28;20222;-86
2022/11/17 02:56:44;;;;;;;9.48;8.50;;;8.00;99.90;;;;;;5054616;28;20248;-86
2022/11/17 02:59:17;;;;;;;11.25;9.80;;;8.00;99.90;;;;;;5036444;28;20222;-85
2022/11/17 03:02:06;;;;;;;9.75;8.90;;;8.00;99.90;;;;;;5041361;28;20682;-86
2022/11/17 03:04:44;;;;;;;9.90;9.00;;;8.00;99.90;;;;;;5053558;28;20679;-85
2022/11/17 03:07:26;;;;;;;9.95;8.65;;;8.00;99.90;;;;;;5044246;28;20222;-85
2022/11/17 03:10:00;;;;;;;9.00;8.13;;;8.00;99.90;;;;;;5034717;28;20299;-86
2022/11/17 03:12:36;;;;;;;9.82;8.82;;;8.00;99.90;;;;;;5054415;28;20707;-85
2022/11/17 03:15:13;;;;;;;10.70;9.65;;;8.10;99.90;;;;;;5053715;28;20236;-84
2022/11/17 03:17:48;;;;;;;9.25;8.43;;;8.10;99.90;;;;;;5055023;28;20233;-84
2022/11/17 03:20:20;;;;;;;9.20;8.40;;;8.20;99.90;;;;;;5056957;28;20213;-84
2022/11/17 03:22:54;;;;;;;9.70;8.80;;;8.30;99.90;;;;;;5039652;28;20206;-85
2022/11/17 03:25:23;;;;;;;10.13;9.00;;;8.40;99.90;;;;;;5042490;28;20205;-86
2022/11/17 03:27:53;;;;;;;9.45;8.55;;;8.40;99.90;;;;;;5059176;28;20232;-85
2022/11/17 03:30:23;;;;;;;9.20;8.60;;;8.50;99.90;;;;;;5057322;28;20273;-86
2022/11/17 03:32:53;;;;;;;8.65;7.82;;;8.50;99.90;;;;;;5039234;28;20271;-85
2022/11/17 03:35:23;;;;;;;8.50;7.70;;;8.50;99.90;;;;;;5038582;28;20237;-85
2022/11/17 03:37:55;;;;;;;10.13;6.20;;;8.60;99.90;;;;;;5056364;28;20233;-86
2022/11/17 03:40:25;;;;;;;7.85;6.28;;;8.60;99.90;;;;;;5056487;28;20206;-86
2022/11/17 03:42:56;;;;;;;6.70;6.03;;;8.70;99.90;;;;;;5036881;28;20207;-84
2022/11/17 03:45:26;;;;;;;5.60;5.30;;;8.80;99.90;;;;;;5036936;28;20207;-85
2022/11/17 03:48:01;;;;;;;4.45;4.05;;;8.80;99.90;;;;;;5058186;28;20326;-87
2022/11/17 03:53:53;;;;;;;5.10;3.55;;;9.00;99.90;;;;;;4996177;28;20610;-85
2022/11/17 03:56:30;;;;;;;4.30;3.63;;;9.00;99.90;;;;;;5050372;28;20225;-85
2022/11/17 03:59:01;;;;;;;4.10;3.70;;;9.10;99.90;;;;;;5047464;28;20209;-85
2022/11/17 04:01:30;;;;;;;3.35;3.15;;;9.10;99.90;;;;;;5038116;28;20210;-86
2022/11/17 04:03:57;;;;;;;4.70;4.10;;;9.10;99.90;;;;;;5047001;28;20205;-86
2022/11/17 04:06:24;;;;;;;4.53;4.15;;;9.20;99.90;;;;;;5057312;28;20230;-85
2022/11/17 04:08:51;;;;;;;3.03;2.83;;;9.20;99.90;;;;;;5049385;28;20199;-84
2022/11/17 04:16:47;;;;;;;3.63;3.30;;;9.30;99.90;;;;;;5056585;28;20220;-86
2022/11/17 04:19:14;;;;;;;3.63;3.33;;;9.30;99.90;;;;;;5045352;28;20213;-85
2022/11/17 04:21:40;;;;;;;3.67;3.42;;;9.30;99.90;;;;;;5035473;28;20212;-84
2022/11/17 04:24:08;;;;;;;3.80;3.50;;;9.30;99.90;;;;;;5055516;28;20609;-84
2022/11/17 04:29:19;;;;;;;3.92;3.55;;;9.40;99.90;;;;;;5035251;28;20208;-86
2022/11/17 04:31:47;;;;;;;4.68;4.35;;;9.50;99.90;;;;;;5035015;28;20219;-84
2022/11/17 04:34:14;;;;;;;4.20;3.80;;;9.50;99.90;;;;;;5055053;28;20198;-85
2022/11/17 04:36:43;;;;;;;4.43;4.03;;;9.50;99.90;;;;;;5049029;28;20243;-85
2022/11/17 04:39:11;;;;;;;5.38;4.95;;;9.50;99.90;;;;;;5037616;28;20265;-84
2022/11/17 04:41:56;;;;;;;4.15;3.85;;;9.60;99.90;;;;;;5039552;28;20203;-84
2022/11/17 04:44:25;;;;;;;7.85;4.70;;;9.70;99.90;;;;;;5039726;28;20207;-85
2022/11/17 04:46:53;;;;;;;5.05;4.75;;;9.60;99.90;;;;;;5076387;22;20341;-84
2022/11/17 04:49:21;;;;;;;6.13;4.15;;;9.60;99.90;;;;;;5064853;28;20207;-81
2022/11/17 04:51:49;;;;;;;4.65;4.15;;;9.70;99.90;;;;;;5067114;28;20553;-82
2022/11/17 04:54:18;;;;;;;5.00;4.60;;;9.70;99.90;;;;;;5059500;28;20207;-83
2022/11/17 04:56:46;;;;;;;4.18;3.88;;;9.70;99.90;;;;;;5042130;28;20227;-86
2022/11/17 04:59:13;;;;;;;6.05;5.03;;;9.70;99.90;;;;;;5039127;28;20726;-86
2022/11/17 05:01:40;;;;;;;5.22;4.40;;;9.80;99.90;;;;;;5058732;28;20230;-83
2022/11/17 05:04:10;;;;;;;4.60;4.00;;;9.80;99.90;;;;;;5062282;28;20203;-84
2022/11/17 05:06:39;;;;;;;8.00;4.90;;;9.80;99.90;;;;;;5061849;28;20237;-86
2022/11/17 05:09:08;;;;;;;6.25;4.88;;;9.80;99.90;;;;;;5063970;28;20207;-83
2022/11/17 05:14:23;;;;;;;7.72;4.68;;;9.90;99.90;;;;;;5068943;28;20198;-86
2022/11/17 05:17:05;;;;;;;5.50;4.70;;;9.90;99.90;;;;;;5061539;28;20228;-84
2022/11/17 05:19:36;;;;;;;5.47;4.30;;;9.90;99.90;;;;;;5062539;28;20190;-84
2022/11/17 05:23:52;;;;;;;4.97;3.90;;;9.90;99.90;;;;;;5061909;28;20212;-84
2022/11/17 05:24:49;;;;;;;4.97;4.22;;;9.90;99.90;;;;;;5060511;28;20207;-87
2022/11/17 05:27:16;;;;;;;4.80;4.20;;;9.90;99.90;;;;;;5060789;28;20227;-86
2022/11/17 05:29:42;;;;;;;5.68;4.85;;;9.80;99.90;;;;;;5060510;28;20202;-87
2022/11/17 05:32:09;;;;;;;5.50;5.10;;;9.90;99.90;;;;;;5061349;28;20221;-86
2022/11/17 05:34:37;;;;;;;5.18;4.78;;;9.80;99.90;;;;;;5060499;28;20242;-87
2022/11/17 05:37:05;;;;;;;5.70;4.70;;;9.80;99.90;;;;;;5061301;28;20225;-87
2022/11/17 05:39:32;;;;;;;5.80;5.28;;;9.90;99.90;;;;;;5061355;28;20678;-84
2022/11/17 05:41:58;;;;;;;5.35;4.85;;;9.80;99.90;;;;;;5061131;28;20205;-85
2022/11/17 05:44:25;;;;;;;4.70;4.30;;;9.80;99.90;;;;;;5071057;28;20199;-84
2022/11/17 05:46:52;;;;;;;4.90;4.45;;;9.80;99.90;;;;;;5059066;28;20235;-87
2022/11/17 05:49:19;;;;;;;5.30;4.78;;;9.80;99.90;;;;;;5060137;28;20202;-85
2022/11/17 05:51:47;;;;;;;5.93;5.10;;;9.80;99.90;;;;;;5061610;28;20225;-83
2022/11/17 05:54:14;;;;;;;5.30;4.88;;;9.90;99.90;;;;;;5062576;28;20807;-85
2022/11/17 05:56:44;;;;;;;5.22;4.72;;;9.80;99.90;;;;;;5061572;28;20235;-85
2022/11/17 05:59:18;;;;;;;6.22;5.63;;;9.80;99.90;;;;;;5061547;28;20202;-87
2022/11/17 06:01:51;;;;;;;5.43;4.93;;;9.80;99.90;;;;;;5062188;28;20580;-85
2022/11/17 06:04:20;;;;;;;5.70;5.28;;;9.70;99.90;;;;;;5061473;28;20191;-82
2022/11/17 06:06:49;;;;;;;4.55;4.15;;;9.70;99.90;;;;;;5041064;28;20226;-84
2022/11/17 06:09:16;;;;;;;5.30;4.88;;;9.70;99.90;;;;;;5049006;28;20203;-85
2022/11/17 06:11:43;;;;;;;4.78;4.40;;;9.60;99.90;;;;;;5061812;28;20208;-84
2022/11/17 06:14:10;;;;;;;5.60;5.10;;;9.60;99.90;;;;;;5062307;28;20231;-84
2022/11/17 06:16:41;;;;;;;5.30;4.93;;;9.70;99.90;;;;;;5060936;28;20507;-83
2022/11/17 06:19:11;;;;;;;5.18;4.72;;;9.70;99.90;;;;;;5060178;28;20198;-84
2022/11/17 06:21:38;;;;;;;4.32;3.92;;;9.80;99.90;;;;;;5060746;28;20212;-84
2022/11/17 06:24:08;;;;;;;4.45;4.07;;;9.80;99.90;;;;;;5060678;28;20215;-84
2022/11/17 06:26:35;;;;;;;4.43;4.13;;;9.80;99.90;;;;;;5059692;28;20736;-84
2022/11/17 06:29:03;;;;;;;5.30;4.57;;;9.90;99.90;;;;;;5060682;28;20197;-84
2022/11/17 06:31:32;;;;;;;4.10;3.80;;;9.90;99.90;;;;;;5061802;28;20219;-84
2022/11/17 06:34:00;;;;;;;4.18;3.53;;;9.90;99.90;;;;;;5060898;28;20465;-84
2022/11/17 06:36:28;;;;;;;3.80;3.23;;;10.00;99.90;;;;;;5070017;28;20227;-84
2022/11/17 06:38:54;;;;;;;2.80;2.60;;;10.00;99.90;;;;;;5060183;28;20450;-84
2022/11/17 06:41:23;;;;;;;3.90;3.00;;;10.00;99.90;;;;;;5060434;28;20211;-83
2022/11/17 06:43:52;;;;;;;5.28;3.13;;;10.00;99.90;;;;;;5054036;28;20449;-84
2022/11/17 06:46:22;;;;;;;2.85;2.58;;;10.00;99.90;;;;;;5052621;28;20225;-84
2022/11/17 06:48:49;;;;;;;3.00;2.80;;;9.90;99.90;;;;;;5054748;28;20207;-83
2022/11/17 06:51:16;;;;;;;2.90;2.70;;;9.90;99.90;;;;;;5055153;28;20203;-84
2022/11/17 06:53:43;;;;;;;2.50;2.30;;;9.80;99.90;;;;;;5055821;28;20202;-84
2022/11/17 06:56:10;;;;;;;3.45;2.83;;;9.90;99.90;;;;;;5053863;28;20485;-84
2022/11/17 06:58:40;;;;;;;3.40;3.10;;;9.90;99.90;;;;;;5056282;28;20206;-84
2022/11/17 07:01:08;;;;;;;6.45;2.97;;;9.90;99.90;;;;;;5055467;28;20203;-83
2022/11/17 07:03:36;;;;;;;3.38;3.17;;;9.90;99.90;;;;;;5055899;28;20222;-84
2022/11/17 07:06:04;;;;;;;3.83;3.53;;;9.90;99.90;;;;;;5055153;28;20210;-83
2022/11/17 07:08:32;;;;;;;4.60;4.17;;;9.90;99.90;;;;;;5054221;28;20232;-83
2022/11/17 07:11:03;;;;;;;5.10;3.78;;;9.90;99.90;;;;;;5054326;28;20514;-80
2022/11/17 07:14:06;;;;;;;2.63;2.42;;;9.80;99.90;;;;;;5049083;28;20583;-86
2022/11/17 07:16:34;;;;;;;3.93;3.63;;;9.90;99.90;;;;;;5034411;28;20238;-84
2022/11/17 07:22:27;;;;;;;5.40;4.90;;;9.80;99.90;;;;;;5012761;28;20206;-82
2022/11/17 07:24:54;;;;;;;3.40;3.10;;;9.90;99.90;;;;;;5046202;28;20458;-85
2022/11/17 07:27:20;;;;;;;2.42;2.22;;;9.90;99.90;;;;;;5056619;28;20222;-86
2022/11/17 07:29:47;;;;;;;1.85;1.75;;;9.90;99.90;;;;;;5067028;28;20206;-85
2022/11/17 07:32:17;;;;;;;2.42;2.00;;;9.80;99.90;;;;;;5055913;28;20212;-85
2022/11/17 07:34:43;;;;;;;1.70;1.52;;;10.00;99.90;;;;;;5055341;28;20207;-85
2022/11/17 07:37:10;;;;;;;1.92;1.80;;;10.00;99.90;;;;;;5054114;28;20231;-84
2022/11/17 07:39:37;;;;;;;1.37;1.37;;;10.00;99.90;;;;;;5054123;28;20595;-86
2022/11/17 07:42:04;;;;;;;1.13;1.13;;;10.00;99.90;;;;;;5054645;28;20476;-84
2022/11/17 07:44:31;;;;;;;3.00;1.60;;;10.20;99.90;;;;;;5056132;28;20196;-84
2022/11/17 07:46:58;;;;;;;1.20;1.20;;;10.10;99.90;;;;;;5057255;28;20750;-84
2022/11/17 07:49:26;;;;;;;1.30;1.20;;;10.10;99.90;;;;;;5055169;28;20205;-85
2022/11/17 07:51:54;;;;;;;2.83;1.50;;;10.20;99.90;;;;;;5054369;28;20460;-86
2022/11/17 07:54:20;;;;;;;2.00;1.80;;;10.30;99.90;;;;;;5054663;28;20263;-86
2022/11/17 07:56:47;;;;;;;2.47;1.30;;;10.30;99.90;;;;;;5056247;28;20557;-81
2022/11/17 08:02:38;;;;;;;2.00;1.23;;;10.40;99.90;;;;;;5021570;28;20302;-84
2022/11/17 08:05:08;;;;;;;4.40;1.25;;;10.60;99.90;;;;;;5050063;28;20447;-83
2022/11/17 08:07:46;;;;;;;1.20;1.10;;;10.60;99.90;;;;;;5054239;28;20224;-86
2022/11/17 08:19:56;;;;;;;1.40;0.60;;;11.00;99.90;;;;;;5052931;28;20439;-83
2022/11/17 08:22:24;;;;;;;0.60;0.60;;;11.10;99.90;;;;;;5059099;28;20506;-81
2022/11/17 08:24:51;;;;;;;1.80;1.03;;;11.10;99.90;;;;;;5059860;28;20837;-84
2022/11/17 08:27:18;;;;;;;0.70;0.50;;;11.20;99.90;;;;;;5057940;28;20470;-82
2022/11/17 08:29:44;;;;;;;0.93;0.67;;;11.30;99.90;;;;;;5057895;28;20447;-85
2022/11/17 08:32:11;;;;;;;1.80;0.67;;;11.40;99.90;;;;;;5057711;28;20464;-83
2022/11/17 08:34:38;;;;;;;0.40;0.37;;;11.40;99.90;;;;;;5057539;28;20455;-84
2022/11/17 08:37:05;;;;;;;0.97;0.40;;;11.40;99.90;;;;;;5057577;28;20491;-84
2022/11/17 08:39:33;;;;;;;1.23;0.90;;;11.50;99.90;;;;;;5056571;28;20454;-82
2022/11/17 08:41:59;;;;;;;1.90;0.70;;;11.50;99.90;;;;;;5056764;28;20451;-82
2022/11/17 08:44:26;;;;;;;1.20;0.50;;;11.40;99.90;;;;;;5056554;28;20455;-82
2022/11/17 08:46:53;;;;;;;2.83;1.03;;;11.40;99.90;;;;;;5056625;28;20476;-86
2022/11/17 08:49:20;;;;;;;1.43;0.40;;;11.30;99.90;;;;;;5056797;28;20455;-83
2022/11/17 08:51:47;;;;;;;3.73;0.83;;;11.30;99.90;;;;;;5056776;28;20818;-85
2022/11/17 08:54:14;;;;;;;1.10;0.67;;;11.30;99.90;;;;;;5056641;28;20439;-83
2022/11/17 08:56:43;;;;;;;0.40;0.40;;;11.30;99.90;;;;;;5056164;28;20493;-86
2022/11/17 08:59:12;;;;;;;0.87;0.50;;;11.30;99.90;;;;;;5056756;28;20458;-83
2022/11/17 09:01:40;;;;;;;0.20;0.20;;;11.50;99.90;;;;;;5056564;28;20450;-82
2022/11/17 09:06:48;;;;;;;0.93;0.60;;;11.50;99.90;;;;;;5074392;28;21015;-84
2022/11/17 09:09:14;;;;;;;1.13;0.60;;;11.60;99.90;;;;;;5076985;28;20454;-82
2022/11/17 09:12:10;;;;;;;1.40;0.50;;;11.60;99.90;;;;;;5076069;28;20462;-85
2022/11/17 09:14:36;;;;;;;1.90;0.40;;;11.70;99.90;;;;;;5076335;28;20457;-84
2022/11/17 09:17:03;;;;;;;0.43;0.30;;;11.70;99.90;;;;;;5071294;28;20489;-81
2022/11/17 09:19:30;;;;;;;1.13;0.73;;;11.70;99.90;;;;;;5058479;28;20451;-83
2022/11/17 09:21:57;;;;;;;0.80;0.80;;;11.70;99.90;;;;;;5058314;28;20545;-82
2022/11/17 09:24:25;;;;;;;0.67;0.67;;;11.80;99.90;;;;;;5056428;28;20451;-85
2022/11/17 09:26:53;;;;;;;0.90;0.63;;;11.80;99.90;;;;;;5055742;28;20548;-85
2022/11/17 09:29:21;;;;;;;0.70;0.67;;;12.00;99.90;;;;;;5055628;28;20955;-83
2022/11/17 09:31:48;;;;;;;1.13;1.03;;;12.10;99.90;;;;;;5056370;28;20459;-87
2022/11/17 09:34:26;;;;;;;0.40;0.40;;;12.20;99.90;;;;;;5059404;28;20459;-84
2022/11/17 09:36:52;;;;;;;0.73;0.40;;;12.20;99.90;;;;;;5061180;28;20531;-83
2022/11/17 09:39:20;;;;;;;0.40;0.40;;;12.10;99.90;;;;;;5060311;28;20447;-83
2022/11/17 09:41:49;;;;;;;1.07;0.70;;;12.20;99.90;;;;;;5061169;28;21099;-83
2022/11/17 09:44:26;;;;;;;0.93;0.57;;;12.30;99.90;;;;;;5059170;28;20544;-83
2022/11/17 09:47:06;;;;;;;4.90;0.83;;;12.40;99.90;;;;;;5054285;28;20502;-84
2022/11/17 09:49:42;;;;;;;0.30;0.30;;;12.50;99.90;;;;;;5053605;28;20537;-85
2022/11/17 09:52:17;;;;;;;2.23;0.53;;;12.50;99.90;;;;;;5055305;28;20445;-84
2022/11/17 09:54:50;;;;;;;1.17;0.60;;;12.50;99.90;;;;;;5053923;28;20966;-86
2022/11/17 09:57:25;;;;;;;1.33;0.80;;;12.50;99.90;;;;;;5057360;28;20498;-83
2022/11/17 10:00:04;;;;;;;1.17;0.53;;;12.60;99.90;;;;;;5056339;28;20447;-82
2022/11/17 10:02:32;;;;;;;1.00;0.63;;;12.70;99.90;;;;;;5040842;28;20787;-84
2022/11/17 10:04:59;;;;;;;2.20;1.27;;;12.50;99.90;;;;;;5054674;28;20507;-84
2022/11/17 10:07:27;;;;;;;1.83;0.60;;;12.60;99.90;;;;;;5053643;28;20464;-83
2022/11/17 10:09:55;;;;;;;0.97;0.70;;;12.60;99.90;;;;;;5054605;28;20456;-84
2022/11/17 10:12:25;;;;;;;2.73;0.50;;;12.60;99.90;;;;;;5053790;28;20467;-85
2022/11/17 10:14:55;;;;;;;0.97;0.63;;;12.50;99.90;;;;;;5052902;28;20463;-84
2022/11/17 10:17:22;;;;;;;1.70;0.57;;;12.40;99.90;;;;;;5053430;28;20502;-83
2022/11/17 10:19:49;;;;;;;1.53;0.80;;;12.50;99.90;;;;;;5053574;28;20458;-83
2022/11/17 10:22:24;;;;;;;1.40;1.00;;;12.50;99.90;;;;;;5053608;28;20455;-84
2022/11/17 10:24:54;;;;;;;1.30;0.77;;;12.60;99.90;;;;;;5054186;28;20447;-82
2022/11/17 10:27:23;;;;;;;1.77;0.80;;;12.80;99.90;;;;;;5053446;28;20471;-83
2022/11/17 10:29:59;;;;;;;2.43;1.80;;;13.10;99.90;;;;;;5053795;28;20842;-83
2022/11/17 10:32:27;;;;;;;1.40;0.73;;;13.40;99.90;;;;;;5053119;28;20444;-86
2022/11/17 10:34:54;;;;;;;0.60;0.60;;;13.60;99.90;;;;;;5054204;28;20825;-83
2022/11/17 10:37:30;;;;;;;0.80;0.57;;;13.60;99.90;;;;;;5053452;28;20491;-85
2022/11/17 10:40:19;;;;;;;2.20;0.77;;;13.60;99.90;;;;;;5053620;28;20452;-85
2022/11/17 10:42:56;;;;;;;0.80;0.80;;;13.70;99.90;;;;;;5036672;28;20532;-84
2022/11/17 10:45:24;;;;;;;1.17;0.60;;;14.00;99.90;;;;;;5054386;28;20446;-85
2022/11/17 10:47:51;;;;;;;2.77;1.00;;;14.60;99.90;;;;;;5053989;28;20467;-85
2022/11/17 10:50:21;;;;;;;5.90;2.80;;;14.90;99.90;;;;;;5053674;28;20459;-84
2022/11/17 10:52:49;;;;;;;1.60;0.90;;;14.90;99.90;;;;;;5052590;28;20457;-84
2022/11/17 10:55:24;;;;;;;2.27;1.33;;;14.50;99.90;;;;;;5053894;28;20543;-83
2022/11/17 10:57:54;;;;;;;3.33;1.00;;;14.00;99.90;;;;;;5052997;28;20535;-84
2022/11/17 11:00:29;;;;;;;1.30;0.80;;;13.70;99.90;;;;;;5052878;28;20455;-84
2022/11/17 11:03:09;;;;;;;1.03;0.53;;;13.90;99.90;;;;;;5052710;28;20451;-84
2022/11/17 11:05:36;;;;;;;1.80;0.63;;;14.40;99.90;;;;;;5052310;28;20451;-84
2022/11/17 11:08:18;;;;;;;1.80;0.63;;;14.70;99.90;;;;;;5052480;28;20460;-82
2022/11/17 11:13:48;;;;;;;2.03;0.93;;;14.90;99.70;;;;;;5052658;28;20464;-85
2022/11/17 11:16:16;;;;;;;3.20;1.00;;;15.10;99.20;;;;;;5053069;28;20503;-84
2022/11/17 11:18:43;;;;;;;3.27;0.77;;;15.50;98.90;;;;;;5052678;28;20454;-85
2022/11/17 11:21:17;;;;;;;2.73;0.90;;;15.50;98.20;;;;;;5052613;28;20942;-84
2022/11/17 11:23:50;;;;;;;4.10;0.97;;;15.30;98.80;;;;;;5053265;28;20453;-84
2022/11/17 11:26:30;;;;;;;2.50;1.07;;;15.00;98.90;;;;;;5052939;28;20444;-85
2022/11/17 11:29:06;;;;;;;3.60;1.10;;;14.50;99.00;;;;;;5054133;28;20452;-82
2022/11/17 11:31:47;;;;;;;4.77;1.80;;;14.10;99.80;;;;;;5055539;28;20538;-83
2022/11/17 11:34:29;;;;;;;1.70;0.83;;;13.50;99.90;;;;;;5056932;28;20448;-82
2022/11/17 11:37:00;;;;;;;4.80;1.20;;;13.30;99.90;;;;;;5054865;28;20488;-82
2022/11/17 11:39:36;;;;;;;2.40;1.50;;;13.10;99.90;;;;;;5038360;28;20451;-82
2022/11/17 11:42:19;;;;;;;4.60;1.20;;;13.10;99.90;;;;;;5055758;28;20447;-82
2022/11/17 11:45:00;;;;;;;4.03;1.80;;;13.10;99.90;;;;;;5055245;28;20452;-82
2022/11/17 11:47:42;;;;;;;2.20;1.27;;;13.00;99.90;;;;;;5053781;28;20480;-82
2022/11/17 11:50:15;;;;;;;2.40;2.07;;;12.80;99.90;;;;;;5059140;28;20470;-82
2022/11/17 11:52:49;;;;;;;2.40;1.30;;;12.80;99.90;;;;;;5057392;28;20435;-81
2022/11/17 11:55:21;;;;;;;2.33;0.90;;;12.70;99.90;;;;;;5053402;28;20504;-82
2022/11/17 11:57:55;;;;;;;3.40;0.87;;;12.70;99.90;;;;;;5054625;28;20493;-83
2022/11/17 12:00:22;;;;;;;2.63;1.70;;;12.70;99.90;;;;;;5056061;28;20459;-83
2022/11/17 12:02:55;;;;;;;2.07;1.07;;;13.40;99.90;;;;;;5056422;28;20453;-83
2022/11/17 12:05:28;;;;;;;3.20;1.20;;;14.20;99.90;;;;;;5056783;28;20953;-82
2022/11/17 12:08:03;;;;;;;1.30;1.20;;;14.70;99.90;;;;;;5057628;28;20882;-83
2022/11/17 12:10:36;;;;;;;4.67;2.10;;;15.10;99.30;;;;;;5057422;28;20457;-83
2022/11/17 12:13:05;;;;;;;6.57;2.50;;;15.70;98.10;;;;;;5056875;28;20809;-84
2022/11/17 12:15:34;;;;;;;1.80;1.17;;;16.20;97.00;;;;;;5056384;28;20996;-83
2022/11/17 12:18:12;;;;;;;1.43;0.80;;;16.00;96.60;;;;;;5055865;28;20490;-84
2022/11/17 12:20:57;;;;;;;2.67;1.20;;;15.50;96.70;;;;;;5048509;28;20789;-83
2022/11/17 12:23:53;;;;;;;3.10;1.10;;;15.60;97.30;;;;;;5039381;28;20511;-82
2022/11/17 12:26:23;;;;;;;2.20;1.30;;;15.70;97.50;;;;;;5051804;28;20444;-84
2022/11/17 12:29:10;;;;;;;4.23;1.13;;;15.80;97.10;;;;;;5051318;28;20532;-87
2022/11/17 12:31:47;;;;;;;3.60;1.37;;;15.70;97.30;;;;;;5037462;28;20453;-81
2022/11/17 12:34:35;;;;;;;4.93;1.63;;;15.40;97.60;;;;;;5051952;28;20455;-83
2022/11/17 12:37:29;;;;;;;1.80;0.90;;;14.80;97.80;;;;;;5051411;28;20549;-85
2022/11/17 12:40:04;;;;;;;2.90;1.23;;;15.10;98.60;;;;;;5050486;28;20448;-83
2022/11/17 12:42:32;;;;;;;2.23;0.83;;;15.30;98.80;;;;;;5051628;28;20539;-85
2022/11/17 12:45:02;;;;;;;2.40;1.83;;;15.40;98.20;;;;;;5043598;28;20474;-86
2022/11/17 12:47:31;;;;;;;7.63;1.00;;;15.30;97.80;;;;;;5052176;28;20473;-84
2022/11/17 12:50:21;;;;;;;2.97;1.53;;;15.40;98.40;;;;;;5052901;28;20488;-85
2022/11/17 12:53:11;;;;;;;3.30;1.70;;;15.80;97.80;;;;;;5037847;28;20454;-82
2022/11/17 12:56:03;;;;;;;2.93;1.50;;;16.70;97.10;;;;;;5052406;28;20444;-82
2022/11/17 12:58:47;;;;;;;1.73;1.57;;;17.10;94.90;;;;;;5055134;28;20513;-83
2022/11/17 13:01:27;;;;;;;2.20;2.07;;;17.10;94.70;;;;;;5056935;28;20472;-84
2022/11/17 13:03:59;;;;;;;1.80;0.90;;;17.30;94.90;;;;;;5056032;28;20458;-83
2022/11/17 13:06:27;;;;;;;1.87;1.00;;;17.40;93.40;;;;;;5056341;28;20951;-83
2022/11/17 13:08:59;;;;;;;3.93;1.37;;;17.40;93.50;;;;;;5055823;28;20459;-85
2022/11/17 13:11:31;;;;;;;1.90;1.47;;;17.20;92.90;;;;;;5056962;28;20431;-85
2022/11/17 13:14:55;;;;;;;4.10;1.57;;;16.40;93.20;;;;;;5055796;28;20449;-84
2022/11/17 13:17:27;;;;;;;3.40;1.20;;;16.00;93.90;;;;;;5057612;28;20486;-81
2022/11/17 13:19:59;;;;;;;6.97;1.70;;;16.50;93.80;;;;;;5059623;28;20515;-84
2022/11/17 13:22:28;;;;;;;3.43;0.93;;;16.40;93.20;;;;;;5056362;28;20458;-84
2022/11/17 13:24:56;;;;;;;2.93;1.77;;;16.00;93.40;;;;;;5055548;28;20479;-83
2022/11/17 13:27:26;;;;;;;1.07;1.00;;;16.20;93.90;;;;;;5055925;28;20604;-82
2022/11/17 13:30:12;;;;;;;7.63;1.30;;;16.30;93.60;;;;;;5053974;28;20957;-87
2022/11/17 13:32:40;;;;;;;3.90;1.13;;;16.20;93.70;;;;;;5036404;28;20540;-85
2022/11/17 13:35:19;;;;;;;3.70;2.00;;;15.70;94.00;;;;;;5056436;28;20859;-84
2022/11/17 13:38:01;;;;;;;3.07;1.63;;;15.20;94.40;;;;;;5056549;28;20502;-83
2022/11/17 13:40:28;;;;;;;8.30;1.60;;;15.00;95.30;;;;;;5056393;28;20491;-85
2022/11/17 13:42:55;;;;;;;4.67;1.77;;;14.60;95.80;;;;;;5056673;28;20817;-84
2022/11/17 13:45:22;;;;;;;2.80;1.63;;;14.30;96.40;;;;;;5056708;28;20453;-84
2022/11/17 13:47:50;;;;;;;3.40;1.37;;;14.20;96.80;;;;;;5057481;28;20475;-84
2022/11/17 13:50:38;;;;;;;1.40;1.30;;;14.20;97.40;;;;;;5058443;28;20448;-84
2022/11/17 13:53:23;;;;;;;3.90;1.50;;;14.30;97.30;;;;;;5055482;28;20465;-85
2022/11/17 13:55:50;;;;;;;3.80;1.67;;;14.40;97.20;;;;;;5057975;28;20447;-85
2022/11/17 13:58:34;;;;;;;5.10;1.20;;;14.80;97.00;;;;;;5058404;28;20488;-85
2022/11/17 14:01:01;;;;;;;3.10;1.77;;;15.10;96.60;;;;;;5055797;28;20468;-86